Time;durP1;ratioP1;P1;durP2;ratioP2;P2;SDS_P1;SDS_P2;PMS_P1;PMS_P2;Temp;Humidity;BMP_temperature;BMP_pressure;BME280_temperature;BME280_humidity;BME280_pressure;Samples;Min_cycle;Max_cycle;Signal;HPM_P1;HPM_P2
2023/07/26 00:01:44;;;;;;;5.30;3.40;;;;;;;14.58;92.92;95653.25;5092194;28;20044;-75
2023/07/26 00:04:10;;;;;;;3.97;3.05;;;;;;;14.54;93.78;95655.13;5094641;27;20051;-77
2023/07/26 00:06:37;;;;;;;4.53;3.60;;;;;;;14.49;94.12;95660.88;5107184;28;20038;-75
2023/07/26 00:09:07;;;;;;;5.38;3.58;;;;;;;14.47;94.66;95663.16;5092720;28;20043;-76
2023/07/26 00:11:34;;;;;;;5.28;3.85;;;;;;;14.47;94.81;95663.16;5101400;27;20105;-75
2023/07/26 00:14:01;;;;;;;6.57;4.10;;;;;;;14.44;95.47;95669.34;5101987;28;20044;-76
2023/07/26 00:16:27;;;;;;;7.45;4.10;;;;;;;14.47;95.44;95668.66;5108740;28;20032;-75
2023/07/26 00:18:54;;;;;;;5.15;3.78;;;;;;;14.54;95.11;95668.81;5107230;28;20047;-76
2023/07/26 00:21:20;;;;;;;5.97;4.18;;;;;;;14.46;94.73;95678.00;5100642;28;20039;-76
2023/07/26 00:23:47;;;;;;;7.00;3.80;;;;;;;14.42;95.35;95679.88;5103416;28;20055;-75
2023/07/26 00:26:14;;;;;;;4.97;3.55;;;;;;;14.45;95.38;95679.16;5106372;28;20054;-76
2023/07/26 00:28:41;;;;;;;5.03;3.70;;;;;;;14.45;95.03;95684.63;5106745;27;20046;-75
2023/07/26 00:31:08;;;;;;;5.35;3.67;;;;;;;14.44;94.80;95685.78;5093991;27;20089;-76
2023/07/26 00:33:34;;;;;;;7.25;3.60;;;;;;;14.39;93.98;95688.81;5106284;27;20046;-78
2023/07/26 00:36:01;;;;;;;4.57;3.53;;;;;;;14.43;94.44;95695.16;5112454;27;20047;-76
2023/07/26 00:38:27;;;;;;;6.10;3.65;;;;;;;14.34;93.47;95698.88;5112805;27;20031;-75
2023/07/26 00:40:54;;;;;;;5.00;3.42;;;;;;;14.39;93.69;95699.75;5104510;27;20040;-75
2023/07/26 00:43:21;;;;;;;8.00;3.60;;;;;;;14.41;93.77;95708.41;5101184;28;20484;-75
2023/07/26 00:45:49;;;;;;;5.15;3.42;;;;;;;14.43;93.66;95706.91;5108053;28;20048;-75
2023/07/26 00:48:16;;;;;;;6.50;3.60;;;;;;;14.46;93.02;95711.69;5093785;28;20047;-75
2023/07/26 00:50:45;;;;;;;9.75;4.20;;;;;;;14.50;92.75;95711.78;5092768;28;20044;-75
2023/07/26 00:53:13;;;;;;;5.35;3.45;;;;;;;14.49;92.06;95718.41;5092176;28;20036;-75
2023/07/26 00:55:40;;;;;;;5.43;3.05;;;;;;;14.50;92.48;95714.50;5103396;28;20427;-75
2023/07/26 00:58:07;;;;;;;5.07;3.50;;;;;;;14.50;91.88;95717.25;5111845;27;20054;-75
2023/07/26 01:00:34;;;;;;;4.03;3.20;;;;;;;14.48;91.85;95723.09;5092764;28;20036;-75
2023/07/26 01:03:01;;;;;;;4.80;3.28;;;;;;;14.52;92.11;95725.94;5093253;28;20044;-75
2023/07/26 01:05:33;;;;;;;5.85;3.20;;;;;;;14.53;91.64;95730.25;5095399;28;20036;-75
2023/07/26 01:08:07;;;;;;;5.47;3.60;;;;;;;14.57;91.58;95734.66;5113894;27;20035;-76
2023/07/26 01:10:39;;;;;;;7.78;3.78;;;;;;;14.52;90.94;95736.88;5103010;28;20040;-76
2023/07/26 01:13:21;;;;;;;6.22;3.75;;;;;;;14.49;91.77;95743.06;5109718;27;20089;-75
2023/07/26 01:15:50;;;;;;;3.70;3.10;;;;;;;14.52;91.70;95745.09;5099050;27;20047;-75
2023/07/26 01:18:18;;;;;;;5.57;3.58;;;;;;;14.50;90.87;95750.13;5095077;27;20047;-75
2023/07/26 01:20:44;;;;;;;4.97;3.42;;;;;;;14.47;90.58;95756.31;5103303;27;20066;-75
2023/07/26 01:23:12;;;;;;;8.90;3.75;;;;;;;14.50;90.32;95750.13;5093200;28;20380;-76
2023/07/26 01:25:39;;;;;;;6.85;3.92;;;;;;;14.54;90.50;95751.00;5102025;28;20052;-76
2023/07/26 01:28:06;;;;;;;7.70;3.70;;;;;;;14.51;90.51;95754.44;5110518;27;20414;-76
2023/07/26 01:30:34;;;;;;;5.18;3.72;;;;;;;14.56;90.65;95752.25;5091207;28;20506;-75
2023/07/26 01:33:04;;;;;;;7.70;3.90;;;;;;;14.61;89.70;95756.63;5093609;28;20044;-74
2023/07/26 01:35:31;;;;;;;5.80;3.50;;;;;;;14.51;89.93;95760.75;5109812;27;20055;-76
2023/07/26 01:37:58;;;;;;;6.60;3.97;;;;;;;14.52;89.76;95762.31;5097747;28;20044;-75
2023/07/26 01:40:27;;;;;;;6.00;3.95;;;;;;;14.58;90.05;95760.09;5108105;28;20047;-76
2023/07/26 01:42:54;;;;;;;6.60;4.65;;;;;;;14.58;89.48;95762.84;5109293;27;20492;-75
2023/07/26 01:45:21;;;;;;;6.75;4.15;;;;;;;14.60;88.82;95760.53;5104062;27;20044;-76
2023/07/26 01:47:47;;;;;;;6.32;4.20;;;;;;;14.57;89.30;95766.75;5100961;28;20040;-76
2023/07/26 01:50:14;;;;;;;7.03;4.55;;;;;;;14.46;89.20;95771.13;5099142;28;20047;-75
2023/07/26 01:52:41;;;;;;;6.85;4.43;;;;;;;14.47;89.37;95770.81;5102015;27;20487;-75
2023/07/26 01:55:08;;;;;;;7.10;4.72;;;;;;;14.45;89.46;95764.84;5101639;27;20503;-76
2023/07/26 01:57:36;;;;;;;9.52;4.78;;;;;;;14.45;90.06;95769.53;5106590;28;20036;-76
2023/07/26 02:00:04;;;;;;;7.85;4.78;;;;;;;14.42;90.49;95770.28;5106962;28;20036;-76
2023/07/26 02:02:31;;;;;;;6.25;4.88;;;;;;;14.36;89.70;95769.75;5095944;28;20047;-75
2023/07/26 02:04:57;;;;;;;7.22;5.15;;;;;;;14.40;90.19;95769.81;5102140;28;20036;-76
2023/07/26 02:07:24;;;;;;;8.77;5.18;;;;;;;14.47;89.81;95767.25;5115380;27;20394;-75
2023/07/26 02:09:50;;;;;;;9.75;5.20;;;;;;;14.41;89.29;95769.50;5100462;28;20048;-75
2023/07/26 02:12:17;;;;;;;7.38;4.85;;;;;;;14.44;89.97;95778.91;5094460;28;20054;-75
2023/07/26 02:14:45;;;;;;;8.05;4.82;;;;;;;14.43;89.90;95771.88;5096605;28;20071;-76
2023/07/26 02:17:11;;;;;;;8.27;4.57;;;;;;;14.40;89.60;95772.56;5114206;27;20372;-75
2023/07/26 02:19:38;;;;;;;7.10;4.68;;;;;;;14.41;89.69;95785.91;5116611;27;20054;-75
2023/07/26 02:22:05;;;;;;;7.53;5.30;;;;;;;14.34;89.98;95797.47;5100038;27;20044;-76
2023/07/26 02:24:33;;;;;;;7.95;5.25;;;;;;;14.31;90.12;95786.47;5100031;28;20048;-75
2023/07/26 02:27:00;;;;;;;7.18;5.03;;;;;;;14.32;90.86;95794.31;5108759;27;20040;-75
2023/07/26 02:29:27;;;;;;;6.38;5.05;;;;;;;14.29;90.68;95800.50;5104804;27;20044;-76
2023/07/26 02:31:54;;;;;;;7.72;4.95;;;;;;;14.29;90.47;95805.19;5107389;27;20051;-75
2023/07/26 02:34:21;;;;;;;6.90;4.75;;;;;;;14.30;90.32;95807.59;5109315;27;20050;-76
2023/07/26 02:36:47;;;;;;;7.57;5.03;;;;;;;14.34;89.96;95807.66;5094526;28;20040;-74
2023/07/26 02:39:14;;;;;;;6.55;4.78;;;;;;;14.36;89.89;95813.59;5092919;28;20048;-75
2023/07/26 02:41:40;;;;;;;7.72;5.40;;;;;;;14.42;89.50;95814.09;5093072;28;20040;-75
2023/07/26 02:44:07;;;;;;;6.47;4.25;;;;;;;14.37;89.54;95817.91;5100998;27;20491;-76
2023/07/26 02:46:33;;;;;;;8.65;4.82;;;;;;;14.36;89.28;95822.59;5112361;28;20048;-76
2023/07/26 02:49:01;;;;;;;8.57;4.38;;;;;;;14.33;89.39;95823.28;5103843;27;20080;-76
2023/07/26 02:51:28;;;;;;;8.93;4.78;;;;;;;14.29;88.85;95818.88;5109699;27;20044;-75
2023/07/26 02:53:54;;;;;;;8.60;4.72;;;;;;;14.17;88.28;95818.97;5093202;28;20097;-75
2023/07/26 02:56:21;;;;;;;9.02;4.93;;;;;;;14.18;88.39;95820.56;5110418;27;20044;-76
2023/07/26 02:58:47;;;;;;;7.22;4.15;;;;;;;14.16;88.45;95823.66;5108260;27;20048;-76
2023/07/26 03:01:16;;;;;;;6.57;4.28;;;;;;;14.11;88.40;95823.94;5092391;28;20414;-75
2023/07/26 03:03:43;;;;;;;7.05;4.10;;;;;;;14.07;88.54;95825.78;5102460;27;20135;-75
2023/07/26 03:06:11;;;;;;;4.85;3.75;;;;;;;14.10;87.86;95836.03;5094585;27;20094;-75
2023/07/26 03:08:37;;;;;;;4.75;3.60;;;;;;;14.08;87.41;95835.56;5092996;28;20044;-75
2023/07/26 03:11:04;;;;;;;6.68;3.65;;;;;;;14.08;86.64;95844.56;5108050;27;20070;-75
2023/07/26 03:13:30;;;;;;;6.50;3.80;;;;;;;14.06;87.43;95840.63;5093588;28;20387;-76
2023/07/26 03:15:58;;;;;;;7.43;3.28;;;;;;;14.12;87.29;95847.41;5100106;28;20387;-76
2023/07/26 03:18:25;;;;;;;6.43;3.38;;;;;;;14.11;86.22;95843.09;5112396;27;20044;-75
2023/07/26 03:20:51;;;;;;;4.40;2.85;;;;;;;14.20;86.39;95848.38;5112822;27;20043;-75
2023/07/26 03:23:19;;;;;;;5.55;2.92;;;;;;;14.25;85.88;95854.41;5112169;27;20055;-75
2023/07/26 03:25:46;;;;;;;5.68;3.13;;;;;;;14.27;84.98;95856.78;5114745;27;20044;-75
2023/07/26 03:28:12;;;;;;;5.80;3.03;;;;;;;14.25;84.11;95854.41;5096340;27;20051;-75
2023/07/26 03:30:39;;;;;;;5.43;3.15;;;;;;;14.28;84.87;95852.88;5102346;27;20048;-75
2023/07/26 03:33:05;;;;;;;6.22;3.13;;;;;;;14.20;84.62;95851.94;5103958;27;20044;-75
2023/07/26 03:35:32;;;;;;;6.80;3.22;;;;;;;14.24;85.65;95850.06;5104197;27;20129;-76
2023/07/26 03:37:58;;;;;;;4.70;3.20;;;;;;;14.23;84.85;95855.91;5099219;28;20051;-75
2023/07/26 03:40:26;;;;;;;4.93;3.30;;;;;;;14.16;85.23;95856.53;5109452;27;20059;-75
2023/07/26 03:42:52;;;;;;;4.15;2.92;;;;;;;14.16;84.94;95859.25;5098781;28;20040;-75
2023/07/26 03:45:19;;;;;;;5.72;3.58;;;;;;;14.21;85.05;95863.69;5100952;27;20044;-75
2023/07/26 03:47:46;;;;;;;6.95;3.45;;;;;;;14.31;85.56;95869.41;5112976;27;20063;-75
2023/07/26 03:50:12;;;;;;;5.25;3.35;;;;;;;14.32;85.34;95870.22;5112098;27;20079;-75
2023/07/26 03:52:39;;;;;;;7.03;3.25;;;;;;;14.36;84.36;95871.91;5112342;27;20048;-76
2023/07/26 03:55:06;;;;;;;6.82;3.42;;;;;;;14.38;85.18;95878.97;5097615;27;20040;-74
2023/07/26 03:57:34;;;;;;;5.82;3.45;;;;;;;14.34;85.39;95879.66;5101417;27;20525;-75
2023/07/26 04:00:00;;;;;;;10.25;3.70;;;;;;;14.34;85.19;95890.59;5112888;27;20039;-75
2023/07/26 04:02:27;;;;;;;8.00;3.83;;;;;;;14.38;85.21;95881.69;5111767;27;20550;-75
2023/07/26 04:04:54;;;;;;;7.03;3.88;;;;;;;14.33;86.01;95894.50;5107194;27;20051;-75
2023/07/26 04:07:20;;;;;;;8.40;4.10;;;;;;;14.35;86.02;95894.97;5091538;28;20134;-75
2023/07/26 04:09:47;;;;;;;7.82;4.60;;;;;;;14.30;85.98;95895.22;5092616;28;20044;-76
2023/07/26 04:12:13;;;;;;;7.75;3.97;;;;;;;14.29;86.27;95899.09;5111431;27;20057;-76
2023/07/26 04:14:41;;;;;;;8.60;4.47;;;;;;;14.28;86.74;95902.97;5111142;27;20681;-76
2023/07/26 04:17:08;;;;;;;7.40;4.40;;;;;;;14.26;87.16;95893.53;5110457;27;20691;-75
2023/07/26 04:19:34;;;;;;;7.75;4.55;;;;;;;14.25;86.75;95909.19;5109894;27;20044;-75
2023/07/26 04:22:01;;;;;;;6.53;4.78;;;;;;;14.23;87.45;95905.97;5106145;27;20051;-76
2023/07/26 04:24:27;;;;;;;7.53;4.57;;;;;;;14.24;87.10;95907.56;5094662;28;20047;-75
2023/07/26 04:26:54;;;;;;;7.63;4.88;;;;;;;14.24;87.25;95915.78;5103231;27;20048;-75
2023/07/26 04:29:20;;;;;;;7.88;4.70;;;;;;;14.27;86.70;95912.34;5102601;27;20507;-75
2023/07/26 04:31:48;;;;;;;9.55;5.07;;;;;;;14.23;86.93;95911.44;5100448;27;20434;-75
2023/07/26 04:34:15;;;;;;;7.72;5.05;;;;;;;14.23;87.45;95919.66;5111333;27;20047;-75
2023/07/26 04:36:42;;;;;;;9.38;5.43;;;;;;;14.18;87.74;95919.94;5095128;28;20047;-75
2023/07/26 04:39:09;;;;;;;8.77;5.00;;;;;;;14.17;87.11;95923.81;5111422;27;20043;-76
2023/07/26 04:41:36;;;;;;;9.27;4.88;;;;;;;14.19;86.99;95932.47;5105524;27;20050;-76
2023/07/26 04:44:02;;;;;;;8.07;5.07;;;;;;;14.18;86.75;95930.09;5105461;27;20040;-75
2023/07/26 04:46:29;;;;;;;7.18;5.55;;;;;;;14.15;87.13;95920.66;5092356;28;20048;-75
2023/07/26 04:48:57;;;;;;;9.80;5.60;;;;;;;14.23;86.98;95933.38;5106811;27;20044;-75
2023/07/26 04:51:23;;;;;;;8.75;5.25;;;;;;;14.22;86.09;95920.81;5090986;28;20123;-75
2023/07/26 04:53:50;;;;;;;7.30;5.20;;;;;;;14.23;86.33;95929.84;5111159;27;20363;-75
2023/07/26 04:56:16;;;;;;;11.63;5.80;;;;;;;14.24;86.37;95929.47;5102506;27;20051;-75
2023/07/26 04:58:43;;;;;;;9.20;5.55;;;;;;;14.23;86.84;95933.38;5091374;28;20517;-76
2023/07/26 05:01:10;;;;;;;9.60;5.88;;;;;;;14.23;86.18;95938.84;5090255;28;20044;-76
2023/07/26 05:03:38;;;;;;;7.55;5.18;;;;;;;14.27;87.46;95933.47;5096166;27;20055;-74
2023/07/26 05:06:06;;;;;;;8.20;5.57;;;;;;;14.32;87.27;95942.22;5090920;28;20064;-75
2023/07/26 05:08:33;;;;;;;6.70;5.50;;;;;;;14.35;87.02;95948.91;5091232;28;20067;-75
2023/07/26 05:11:00;;;;;;;8.55;5.72;;;;;;;14.32;85.88;95947.69;5099164;28;20054;-76
2023/07/26 05:13:26;;;;;;;6.55;4.97;;;;;;;14.35;86.88;95963.44;5096636;28;20054;-75
2023/07/26 05:15:53;;;;;;;11.70;5.68;;;;;;;14.45;85.42;95953.09;5096019;27;20052;-76
2023/07/26 05:18:19;;;;;;;10.23;5.68;;;;;;;14.49;85.86;95956.75;5088125;28;20063;-77
2023/07/26 05:20:49;;;;;;;9.82;5.80;;;;;;;14.55;86.11;95955.34;5105086;27;20043;-75
2023/07/26 05:23:17;;;;;;;9.60;5.47;;;;;;;14.57;86.47;95964.81;5095741;28;20052;-75
2023/07/26 05:25:43;;;;;;;7.85;5.75;;;;;;;14.53;84.17;95963.13;5096634;28;20043;-76
2023/07/26 05:28:10;;;;;;;10.57;5.97;;;;;;;14.52;85.31;95961.53;5090134;28;20047;-75
2023/07/26 05:30:38;;;;;;;8.52;6.05;;;;;;;14.54;85.44;95972.94;5105717;27;20050;-76
2023/07/26 05:33:04;;;;;;;8.75;5.95;;;;;;;14.57;85.88;95974.97;5106536;27;20510;-77
2023/07/26 05:35:31;;;;;;;8.05;5.72;;;;;;;14.55;84.56;95977.25;5102565;28;20046;-77
2023/07/26 05:37:57;;;;;;;8.05;6.15;;;;;;;14.58;84.97;95982.03;5091330;28;20066;-77
2023/07/26 05:40:26;;;;;;;11.43;6.40;;;;;;;14.60;85.09;95977.00;5098590;28;20043;-77
2023/07/26 05:42:52;;;;;;;13.30;6.80;;;;;;;14.59;84.64;95978.94;5099523;27;20036;-77
2023/07/26 05:45:19;;;;;;;11.02;7.30;;;;;;;14.58;85.05;95982.03;5095568;27;20131;-77
2023/07/26 05:47:47;;;;;;;10.50;6.28;;;;;;;14.61;84.47;95984.06;5094262;28;20040;-77
2023/07/26 05:50:14;;;;;;;12.55;7.13;;;;;;;14.58;84.96;95985.56;5104393;27;20040;-77
2023/07/26 05:52:43;;;;;;;12.27;7.00;;;;;;;14.53;85.16;95991.31;5108177;27;20089;-77
2023/07/26 05:55:10;;;;;;;10.35;6.72;;;;;;;14.57;84.25;95985.94;5105279;28;20043;-77
2023/07/26 05:57:38;;;;;;;10.13;7.30;;;;;;;14.55;84.71;95997.22;5093247;28;20039;-76
2023/07/26 06:00:05;;;;;;;8.98;6.55;;;;;;;14.59;84.73;96000.84;5090935;28;20395;-77
2023/07/26 06:02:32;;;;;;;11.77;8.05;;;;;;;14.59;85.05;96000.84;5108392;27;20055;-76
2023/07/26 06:04:58;;;;;;;14.73;7.65;;;;;;;14.61;84.63;95995.03;5095652;28;20035;-76
2023/07/26 06:07:25;;;;;;;11.05;7.60;;;;;;;14.65;84.83;95997.84;5113949;27;20135;-77
2023/07/26 06:09:51;;;;;;;13.65;8.45;;;;;;;14.63;83.64;96005.66;5098681;28;20082;-76
2023/07/26 06:12:18;;;;;;;12.40;7.70;;;;;;;14.66;82.87;96005.72;5107656;27;20048;-77
2023/07/26 06:14:48;;;;;;;11.07;8.15;;;;;;;14.72;83.38;96009.00;5095116;28;20492;-77
2023/07/26 06:17:14;;;;;;;12.93;8.73;;;;;;;14.70;83.74;96006.59;5094805;28;20075;-76
2023/07/26 06:19:41;;;;;;;11.43;8.52;;;;;;;14.76;84.17;96015.38;5105396;27;20407;-76
2023/07/26 06:22:07;;;;;;;15.43;8.30;;;;;;;14.69;82.10;96010.50;5101518;28;20063;-76
2023/07/26 06:24:34;;;;;;;14.88;8.98;;;;;;;14.70;83.18;96017.56;5097604;28;20066;-77
2023/07/26 06:27:00;;;;;;;12.63;8.38;;;;;;;14.76;82.80;96016.16;5099352;28;20062;-76
2023/07/26 06:29:27;;;;;;;16.90;8.63;;;;;;;14.69;82.81;96021.47;5106886;27;20047;-76
2023/07/26 06:31:55;;;;;;;13.55;8.88;;;;;;;14.74;81.85;96021.22;5103532;27;20051;-77
2023/07/26 06:34:22;;;;;;;11.02;8.05;;;;;;;14.75;82.08;96022.00;5110328;27;20067;-77
2023/07/26 06:36:48;;;;;;;12.77;9.27;;;;;;;14.76;82.29;96020.84;5115545;27;20047;-76
2023/07/26 06:39:17;;;;;;;15.93;9.05;;;;;;;14.79;81.59;96017.41;5100421;27;20052;-77
2023/07/26 06:41:44;;;;;;;11.10;8.60;;;;;;;14.88;81.48;96012.56;5095373;28;20050;-77
2023/07/26 06:44:11;;;;;;;19.80;9.02;;;;;;;15.00;82.04;96017.16;5103913;27;20124;-76
2023/07/26 06:46:38;;;;;;;12.82;9.35;;;;;;;14.97;80.50;96026.06;5112119;27;20056;-76
2023/07/26 06:49:06;;;;;;;12.80;9.20;;;;;;;14.94;80.40;96026.78;5094655;28;20089;-76
2023/07/26 06:51:33;;;;;;;15.45;9.23;;;;;;;14.89;80.84;96025.13;5102710;28;20044;-77
2023/07/26 06:53:59;;;;;;;12.85;8.73;;;;;;;14.97;79.97;96026.06;5093988;28;20032;-77
2023/07/26 06:56:26;;;;;;;13.05;8.95;;;;;;;15.01;79.55;96035.97;5096132;28;20051;-76
2023/07/26 06:58:53;;;;;;;15.68;9.10;;;;;;;15.09;79.53;96034.22;5106202;27;20039;-76
2023/07/26 07:01:20;;;;;;;14.60;10.27;;;;;;;15.05;78.88;96036.06;5100293;28;20051;-78
2023/07/26 07:03:47;;;;;;;11.52;9.05;;;;;;;15.07;78.26;96044.72;5095152;28;20040;-76
2023/07/26 07:06:15;;;;;;;13.85;9.30;;;;;;;15.08;77.95;96044.38;5095485;28;20059;-77
2023/07/26 07:08:44;;;;;;;15.65;8.73;;;;;;;15.11;77.88;96048.38;5094811;28;20399;-76
2023/07/26 07:11:10;;;;;;;14.20;9.23;;;;;;;15.06;77.89;96046.69;5094252;28;20040;-77
2023/07/26 07:13:37;;;;;;;13.38;8.93;;;;;;;15.01;77.95;96046.16;5103712;27;20044;-77
2023/07/26 07:16:04;;;;;;;28.45;20.58;;;;;;;14.98;78.70;96044.09;5107016;27;20047;-76
2023/07/26 07:18:31;;;;;;;13.68;10.15;;;;;;;14.92;79.02;96046.31;5114531;27;20171;-77
2023/07/26 07:21:00;;;;;;;11.35;8.65;;;;;;;14.90;79.25;96043.16;5112538;27;20044;-76
2023/07/26 07:23:28;;;;;;;11.75;8.80;;;;;;;14.90;79.09;96053.31;5111384;27;20051;-77
2023/07/26 07:25:55;;;;;;;16.23;11.85;;;;;;;14.82;82.23;96052.31;5107275;27;20052;-76
2023/07/26 07:28:23;;;;;;;19.48;11.38;;;;;;;14.68;85.89;96052.78;5102742;27;20051;-77
2023/07/26 07:30:50;;;;;;;17.58;12.43;;;;;;;14.55;86.26;96054.75;5097380;28;20510;-76
2023/07/26 07:33:16;;;;;;;19.95;13.15;;;;;;;14.55;87.46;96049.28;5115631;27;20043;-77
2023/07/26 07:35:43;;;;;;;18.38;12.43;;;;;;;14.49;88.63;96052.63;5114849;28;20089;-76
2023/07/26 07:38:09;;;;;;;13.23;8.70;;;;;;;14.44;85.49;96052.84;5111125;27;20044;-75
2023/07/26 07:40:37;;;;;;;15.23;8.95;;;;;;;14.40;85.59;96051.97;5111993;27;20050;-76
2023/07/26 07:43:04;;;;;;;17.38;10.60;;;;;;;14.36;86.13;96052.69;5115968;28;20042;-76
2023/07/26 07:45:30;;;;;;;18.15;12.77;;;;;;;14.35;87.62;96053.00;5108265;28;20055;-76
2023/07/26 07:47:57;;;;;;;18.52;13.48;;;;;;;14.34;88.40;96054.94;5107198;27;20054;-77
2023/07/26 07:50:23;;;;;;;17.75;12.25;;;;;;;14.29;87.01;96049.72;5114487;27;20047;-77
2023/07/26 07:52:50;;;;;;;20.58;12.60;;;;;;;14.30;86.66;96048.59;5096584;28;20422;-76
2023/07/26 07:55:17;;;;;;;15.57;11.85;;;;;;;14.35;85.28;96050.25;5094186;28;20052;-77
2023/07/26 07:57:45;;;;;;;17.60;11.82;;;;;;;14.39;85.83;96053.13;5103832;27;20067;-77
2023/07/26 08:00:12;;;;;;;19.55;12.77;;;;;;;14.47;87.97;96057.66;5109347;27;20101;-76
2023/07/26 08:02:39;;;;;;;14.75;11.52;;;;;;;14.59;88.22;96061.16;5095029;28;20127;-77
2023/07/26 08:05:06;;;;;;;15.32;12.25;;;;;;;14.67;86.85;96067.63;5095772;28;20505;-76
2023/07/26 08:07:32;;;;;;;16.65;12.13;;;;;;;14.69;85.98;96065.31;5095604;28;20054;-76
2023/07/26 08:09:59;;;;;;;12.82;9.80;;;;;;;14.78;85.63;96065.16;5107552;27;20051;-77
2023/07/26 08:12:25;;;;;;;17.13;11.55;;;;;;;14.88;85.50;96067.38;5116003;27;20044;-76
2023/07/26 08:14:55;;;;;;;14.27;10.75;;;;;;;14.99;83.05;96062.19;5107787;27;20051;-75
2023/07/26 08:17:21;;;;;;;14.52;11.02;;;;;;;15.03;83.93;96061.09;5117038;27;20487;-77
2023/07/26 08:19:48;;;;;;;14.00;10.65;;;;;;;15.13;80.96;96068.00;5100472;28;20058;-76
2023/07/26 08:22:14;;;;;;;18.88;12.95;;;;;;;15.20;80.81;96068.19;5108319;27;20047;-77
2023/07/26 08:24:41;;;;;;;14.98;11.50;;;;;;;15.27;80.31;96062.88;5117258;27;20043;-77
2023/07/26 08:27:07;;;;;;;18.90;10.50;;;;;;;15.23;78.84;96061.19;5099188;27;20070;-77
2023/07/26 08:29:34;;;;;;;15.10;9.75;;;;;;;15.26;79.31;96071.47;5110592;28;20040;-77
2023/07/26 08:32:03;;;;;;;15.57;10.57;;;;;;;15.32;79.17;96061.81;5108981;27;20050;-76
2023/07/26 08:34:30;;;;;;;14.27;10.55;;;;;;;15.36;80.39;96070.91;5103487;28;20036;-76
2023/07/26 08:36:56;;;;;;;13.98;10.07;;;;;;;15.36;79.51;96073.66;5108369;27;20134;-76
2023/07/26 08:39:23;;;;;;;16.05;9.30;;;;;;;15.37;78.39;96076.03;5119050;27;20042;-77
2023/07/26 08:41:50;;;;;;;14.38;9.52;;;;;;;15.40;79.71;96082.78;5100991;28;20064;-76
2023/07/26 08:44:18;;;;;;;12.82;8.85;;;;;;;15.41;79.89;96076.13;5099097;28;20127;-76
2023/07/26 08:46:47;;;;;;;13.82;8.95;;;;;;;15.38;78.39;96074.88;5098986;28;20151;-77
2023/07/26 08:49:15;;;;;;;10.68;8.50;;;;;;;15.37;78.78;96078.00;5098236;28;20070;-77
2023/07/26 08:51:44;;;;;;;18.17;8.88;;;;;;;15.33;79.70;96075.16;5098661;28;20117;-76
2023/07/26 08:54:13;;;;;;;11.45;8.65;;;;;;;15.40;80.30;96069.06;5097299;28;20043;-76
2023/07/26 08:56:39;;;;;;;16.42;9.95;;;;;;;15.52;78.76;96076.38;5097177;28;20062;-77
2023/07/26 08:59:06;;;;;;;10.27;8.00;;;;;;;15.69;78.41;96076.03;5113653;27;20044;-77
2023/07/26 09:01:34;;;;;;;13.60;8.20;;;;;;;15.79;75.11;96077.41;5112886;27;20043;-78
2023/07/26 09:04:00;;;;;;;12.07;7.70;;;;;;;15.79;76.16;96078.22;5100378;27;20067;-78
2023/07/26 09:06:28;;;;;;;11.60;7.75;;;;;;;15.74;76.29;96081.25;5090373;28;20040;-76
2023/07/26 09:08:55;;;;;;;10.60;6.93;;;;;;;15.69;74.27;96084.25;5099511;27;20044;-77
2023/07/26 09:11:23;;;;;;;10.70;6.60;;;;;;;15.75;74.05;96087.53;5090449;28;20044;-77
2023/07/26 09:13:54;;;;;;;10.55;6.50;;;;;;;15.75;74.05;96091.06;5099755;27;20047;-77
2023/07/26 09:16:21;;;;;;;9.60;6.65;;;;;;;15.85;74.51;96089.72;5097130;28;20044;-77
2023/07/26 09:18:59;;;;;;;10.77;6.57;;;;;;;15.87;73.10;96090.97;5098981;28;20086;-77
2023/07/26 09:21:30;;;;;;;7.65;5.95;;;;;;;15.85;73.16;96097.94;5090114;28;20044;-78
2023/07/26 09:23:58;;;;;;;8.95;6.22;;;;;;;15.62;73.26;96090.34;5090821;28;20519;-76
2023/07/26 09:26:34;;;;;;;9.55;6.22;;;;;;;15.52;74.10;96090.09;5094495;28;20047;-77
2023/07/26 09:29:00;;;;;;;12.40;5.68;;;;;;;15.66;73.25;96093.22;5107493;27;20097;-78
2023/07/26 09:31:31;;;;;;;12.68;6.40;;;;;;;15.57;74.24;96092.59;5090512;28;20071;-77
2023/07/26 09:33:58;;;;;;;5.93;5.30;;;;;;;16.04;70.82;96083.47;5090506;28;20051;-77
2023/07/26 09:36:25;;;;;;;11.38;6.05;;;;;;;15.86;73.78;96083.06;5090803;28;20404;-77
2023/07/26 09:38:52;;;;;;;8.00;5.35;;;;;;;15.54;71.99;96076.81;5107188;27;20410;-77
2023/07/26 09:41:23;;;;;;;10.18;6.45;;;;;;;15.80;72.02;96077.06;5089246;28;20052;-77
2023/07/26 09:43:51;;;;;;;8.55;5.93;;;;;;;15.78;71.35;96070.34;5090687;28;20109;-77
2023/07/26 09:46:18;;;;;;;7.63;5.65;;;;;;;15.94;72.22;96076.59;5090378;28;20097;-77
2023/07/26 09:48:59;;;;;;;7.95;5.07;;;;;;;16.06;71.96;96075.66;5107038;28;20039;-77
2023/07/26 09:51:28;;;;;;;7.32;4.47;;;;;;;16.07;68.27;96071.75;5089193;28;20040;-77
2023/07/26 09:53:57;;;;;;;9.40;5.05;;;;;;;16.23;69.52;96075.22;5090630;28;20040;-77
2023/07/26 09:56:24;;;;;;;6.18;4.32;;;;;;;16.52;69.60;96070.31;5100295;27;20105;-77
2023/07/26 09:58:51;;;;;;;7.65;4.50;;;;;;;16.13;67.25;96073.03;5102483;27;20039;-76
2023/07/26 10:01:19;;;;;;;7.60;4.07;;;;;;;16.62;66.42;96058.72;5097319;28;20044;-76
2023/07/26 10:03:51;;;;;;;7.13;3.78;;;;;;;16.88;64.42;96050.59;5090480;28;20044;-78
2023/07/26 10:06:19;;;;;;;6.13;3.30;;;;;;;17.61;67.46;96059.66;5090023;28;20496;-77
2023/07/26 10:08:47;;;;;;;7.63;3.47;;;;;;;18.11;60.10;96059.56;5098683;27;20043;-76
2023/07/26 10:11:19;;;;;;;6.20;3.65;;;;;;;18.82;59.58;96054.13;5089784;28;20046;-77
2023/07/26 10:13:47;;;;;;;4.65;3.03;;;;;;;19.27;54.87;96059.31;5106800;27;20051;-77
2023/07/26 10:16:14;;;;;;;7.57;2.80;;;;;;;19.18;53.82;96058.03;5090113;28;20048;-78
2023/07/26 10:18:42;;;;;;;7.93;2.30;;;;;;;19.87;53.82;96057.41;5090620;28;20055;-77
2023/07/26 10:21:12;;;;;;;5.20;2.13;;;;;;;19.72;52.69;96050.97;5106392;27;20066;-77
2023/07/26 10:23:39;;;;;;;4.95;2.10;;;;;;;19.94;51.79;96051.91;5090149;28;20048;-77
2023/07/26 10:26:06;;;;;;;4.88;2.10;;;;;;;20.00;51.21;96040.13;5094592;28;20487;-77
2023/07/26 10:28:35;;;;;;;6.10;2.20;;;;;;;20.16;52.51;96047.31;5089579;28;20040;-77
2023/07/26 10:31:02;;;;;;;4.43;2.15;;;;;;;19.83;53.14;96040.00;5106217;28;20051;-77
2023/07/26 10:33:28;;;;;;;4.60;2.00;;;;;;;19.89;50.45;96042.03;5090548;28;20040;-76
2023/07/26 10:35:55;;;;;;;4.97;1.92;;;;;;;20.22;50.92;96038.25;5099479;27;20036;-77
2023/07/26 10:38:22;;;;;;;2.70;1.85;;;;;;;20.92;49.01;96033.34;5097369;28;20054;-77
2023/07/26 10:40:48;;;;;;;4.63;1.75;;;;;;;21.07;47.27;96037.72;5089605;28;20044;-78
2023/07/26 10:43:41;;;;;;;6.18;1.80;;;;;;;20.36;48.10;96048.59;5097874;28;20044;-77
2023/07/26 10:46:10;;;;;;;4.53;1.77;;;;;;;20.90;48.90;96046.78;5100074;27;20047;-77
2023/07/26 10:48:38;;;;;;;5.03;1.80;;;;;;;20.71;47.54;96041.59;5110228;28;20048;-77
2023/07/26 10:51:23;;;;;;;4.85;2.00;;;;;;;20.28;49.09;96039.44;5091115;28;20051;-77
2023/07/26 10:53:49;;;;;;;3.83;1.90;;;;;;;19.49;52.69;96043.69;5091624;28;20048;-77
2023/07/26 10:56:20;;;;;;;4.07;2.05;;;;;;;20.06;51.61;96046.84;5106930;27;20557;-77
2023/07/26 10:58:53;;;;;;;5.40;1.95;;;;;;;20.13;50.76;96042.53;5093442;28;20051;-77
2023/07/26 11:01:38;;;;;;;4.15;1.73;;;;;;;20.54;47.56;96030.09;5101011;28;20044;-76
2023/07/26 11:04:10;;;;;;;8.65;1.92;;;;;;;19.93;48.37;96036.50;5092974;28;20044;-77
2023/07/26 11:06:55;;;;;;;2.33;1.60;;;;;;;19.61;48.61;96028.03;5107721;28;20176;-77
2023/07/26 11:09:27;;;;;;;3.25;1.60;;;;;;;19.08;49.29;96023.66;5100464;28;20411;-77
2023/07/26 11:11:55;;;;;;;3.25;1.90;;;;;;;19.03;50.60;96030.31;5101480;28;20051;-77
2023/07/26 11:14:23;;;;;;;6.18;2.00;;;;;;;19.14;51.26;96021.31;5096419;27;20114;-77
2023/07/26 11:16:50;;;;;;;6.20;1.75;;;;;;;19.21;51.78;96021.38;5104845;27;20044;-77
2023/07/26 11:19:16;;;;;;;5.30;1.73;;;;;;;19.11;52.77;96016.59;5113458;27;20040;-78
2023/07/26 11:21:44;;;;;;;4.93;1.70;;;;;;;18.93;53.12;96011.69;5113603;27;20506;-77
2023/07/26 11:24:10;;;;;;;3.80;1.73;;;;;;;18.75;52.28;96019.00;5112887;27;20509;-77
2023/07/26 11:26:41;;;;;;;4.05;1.67;;;;;;;18.73;53.22;96018.56;5107854;27;20059;-77
2023/07/26 11:29:09;;;;;;;3.28;1.70;;;;;;;18.68;52.55;96013.41;5093559;28;20040;-77
2023/07/26 11:31:37;;;;;;;4.45;1.52;;;;;;;18.61;54.75;96002.28;5093468;28;20423;-77